sensor_id;sensor_type;location;lat;lon;timestamp;temperature;humidity
12470;DHT22;36499;46.484;13.832;2023-04-24T00:01:42;10.20;99.90
12470;DHT22;36499;46.484;13.832;2023-04-24T00:04:09;10.20;99.90
12470;DHT22;36499;46.484;13.832;2023-04-24T00:06:39;10.30;99.90
12470;DHT22;36499;46.484;13.832;2023-04-24T00:09:08;10.30;99.90
12470;DHT22;36499;46.484;13.832;2023-04-24T00:11:36;10.20;99.90
12470;DHT22;36499;46.484;13.832;2023-04-24T00:14:03;10.20;99.90
12470;DHT22;36499;46.484;13.832;2023-04-24T00:16:32;10.20;99.90
12470;DHT22;36499;46.484;13.832;2023-04-24T00:18:59;10.30;99.90
12470;DHT22;36499;46.484;13.832;2023-04-24T00:21:26;10.30;99.90
12470;DHT22;36499;46.484;13.832;2023-04-24T00:23:53;10.30;99.90
12470;DHT22;36499;46.484;13.832;2023-04-24T00:26:20;10.20;99.90
12470;DHT22;36499;46.484;13.832;2023-04-24T00:28:48;10.20;99.90
12470;DHT22;36499;46.484;13.832;2023-04-24T00:31:15;10.20;99.90
12470;DHT22;36499;46.484;13.832;2023-04-24T00:33:44;10.20;99.90
12470;DHT22;36499;46.484;13.832;2023-04-24T00:36:11;10.10;99.90
12470;DHT22;36499;46.484;13.832;2023-04-24T00:38:38;10.10;99.90
12470;DHT22;36499;46.484;13.832;2023-04-24T00:41:05;10.00;99.90
12470;DHT22;36499;46.484;13.832;2023-04-24T00:43:32;10.00;99.90
12470;DHT22;36499;46.484;13.832;2023-04-24T00:46:00;10.00;99.90
12470;DHT22;36499;46.484;13.832;2023-04-24T00:48:27;9.90;99.90
12470;DHT22;36499;46.484;13.832;2023-04-24T00:50:56;9.90;99.90
12470;DHT22;36499;46.484;13.832;2023-04-24T00:53:24;9.80;99.90
12470;DHT22;36499;46.484;13.832;2023-04-24T00:55:51;9.80;99.90
12470;DHT22;36499;46.484;13.832;2023-04-24T00:58:18;9.80;99.90
12470;DHT22;36499;46.484;13.832;2023-04-24T01:00:46;9.80;99.90
12470;DHT22;36499;46.484;13.832;2023-04-24T01:03:16;9.70;99.90
12470;DHT22;36499;46.484;13.832;2023-04-24T01:05:44;9.80;99.90
12470;DHT22;36499;46.484;13.832;2023-04-24T01:08:13;9.80;99.90
12470;DHT22;36499;46.484;13.832;2023-04-24T01:10:41;9.70;99.90
12470;DHT22;36499;46.484;13.832;2023-04-24T01:13:10;9.70;99.90
12470;DHT22;36499;46.484;13.832;2023-04-24T01:15:37;9.60;99.90
12470;DHT22;36499;46.484;13.832;2023-04-24T01:18:04;9.60;99.90
12470;DHT22;36499;46.484;13.832;2023-04-24T01:20:32;9.50;99.90
12470;DHT22;36499;46.484;13.832;2023-04-24T01:23:03;9.50;99.90
12470;DHT22;36499;46.484;13.832;2023-04-24T01:25:30;9.50;99.90
12470;DHT22;36499;46.484;13.832;2023-04-24T01:27:58;9.40;99.90
12470;DHT22;36499;46.484;13.832;2023-04-24T01:30:27;9.40;99.90
12470;DHT22;36499;46.484;13.832;2023-04-24T01:32:54;9.40;99.90
12470;DHT22;36499;46.484;13.832;2023-04-24T01:35:22;9.40;99.90
12470;DHT22;36499;46.484;13.832;2023-04-24T01:37:49;9.40;99.90
12470;DHT22;36499;46.484;13.832;2023-04-24T01:40:17;9.30;99.90
12470;DHT22;36499;46.484;13.832;2023-04-24T01:42:45;9.30;99.90
12470;DHT22;36499;46.484;13.832;2023-04-24T01:45:12;9.30;99.90
12470;DHT22;36499;46.484;13.832;2023-04-24T01:47:39;9.30;99.90
12470;DHT22;36499;46.484;13.832;2023-04-24T01:50:08;9.30;99.90
12470;DHT22;36499;46.484;13.832;2023-04-24T01:52:36;9.30;99.90
12470;DHT22;36499;46.484;13.832;2023-04-24T01:55:04;9.30;99.90
12470;DHT22;36499;46.484;13.832;2023-04-24T01:57:34;9.30;99.90
12470;DHT22;36499;46.484;13.832;2023-04-24T02:00:02;9.30;99.90
12470;DHT22;36499;46.484;13.832;2023-04-24T02:02:31;9.30;99.90
12470;DHT22;36499;46.484;13.832;2023-04-24T02:04:58;9.30;99.90
12470;DHT22;36499;46.484;13.832;2023-04-24T02:07:26;9.30;99.90
12470;DHT22;36499;46.484;13.832;2023-04-24T02:09:53;9.30;99.90
12470;DHT22;36499;46.484;13.832;2023-04-24T02:12:20;9.30;99.90
12470;DHT22;36499;46.484;13.832;2023-04-24T02:14:49;9.30;99.90
12470;DHT22;36499;46.484;13.832;2023-04-24T02:17:17;9.30;99.90
12470;DHT22;36499;46.484;13.832;2023-04-24T02:19:44;9.40;99.90
12470;DHT22;36499;46.484;13.832;2023-04-24T02:22:12;9.30;99.90
12470;DHT22;36499;46.484;13.832;2023-04-24T02:24:39;9.40;99.90
12470;DHT22;36499;46.484;13.832;2023-04-24T02:27:06;9.40;99.90
12470;DHT22;36499;46.484;13.832;2023-04-24T02:29:34;9.40;99.90
12470;DHT22;36499;46.484;13.832;2023-04-24T02:32:02;9.50;99.90
12470;DHT22;36499;46.484;13.832;2023-04-24T02:34:29;9.50;99.90
12470;DHT22;36499;46.484;13.832;2023-04-24T02:36:56;9.50;99.90
12470;DHT22;36499;46.484;13.832;2023-04-24T02:39:23;9.50;99.90
12470;DHT22;36499;46.484;13.832;2023-04-24T02:41:50;9.50;99.90
12470;DHT22;36499;46.484;13.832;2023-04-24T02:44:17;9.60;99.90
12470;DHT22;36499;46.484;13.832;2023-04-24T02:46:44;9.60;99.90
12470;DHT22;36499;46.484;13.832;2023-04-24T02:49:13;9.60;99.90
12470;DHT22;36499;46.484;13.832;2023-04-24T02:51:41;9.60;99.90
12470;DHT22;36499;46.484;13.832;2023-04-24T02:54:08;9.60;99.90
12470;DHT22;36499;46.484;13.832;2023-04-24T02:56:35;9.50;99.90
12470;DHT22;36499;46.484;13.832;2023-04-24T02:59:02;9.50;99.90
12470;DHT22;36499;46.484;13.832;2023-04-24T03:01:29;9.50;99.90
12470;DHT22;36499;46.484;13.832;2023-04-24T03:03:56;9.60;99.90
12470;DHT22;36499;46.484;13.832;2023-04-24T03:06:25;9.60;99.90
12470;DHT22;36499;46.484;13.832;2023-04-24T03:08:53;9.50;99.90
12470;DHT22;36499;46.484;13.832;2023-04-24T03:11:20;9.50;99.90
12470;DHT22;36499;46.484;13.832;2023-04-24T03:13:47;9.50;99.90
12470;DHT22;36499;46.484;13.832;2023-04-24T03:16:14;9.50;99.90
12470;DHT22;36499;46.484;13.832;2023-04-24T03:18:41;9.50;99.90
12470;DHT22;36499;46.484;13.832;2023-04-24T03:21:09;9.50;99.90
12470;DHT22;36499;46.484;13.832;2023-04-24T03:23:37;9.50;99.90
12470;DHT22;36499;46.484;13.832;2023-04-24T03:26:05;9.40;99.90
12470;DHT22;36499;46.484;13.832;2023-04-24T03:28:32;9.50;99.90
12470;DHT22;36499;46.484;13.832;2023-04-24T03:30:59;9.50;99.90
12470;DHT22;36499;46.484;13.832;2023-04-24T03:33:26;9.50;99.90
12470;DHT22;36499;46.484;13.832;2023-04-24T03:35:53;9.50;99.90
12470;DHT22;36499;46.484;13.832;2023-04-24T03:38:20;9.40;99.90
12470;DHT22;36499;46.484;13.832;2023-04-24T03:40:48;9.50;99.90
12470;DHT22;36499;46.484;13.832;2023-04-24T03:43:15;9.40;99.90
12470;DHT22;36499;46.484;13.832;2023-04-24T03:45:42;9.50;99.90
12470;DHT22;36499;46.484;13.832;2023-04-24T03:48:10;9.40;99.90
12470;DHT22;36499;46.484;13.832;2023-04-24T03:50:37;9.40;99.90
12470;DHT22;36499;46.484;13.832;2023-04-24T03:53:04;9.40;99.90
12470;DHT22;36499;46.484;13.832;2023-04-24T03:55:31;9.30;99.90
12470;DHT22;36499;46.484;13.832;2023-04-24T03:57:59;9.40;99.90
12470;DHT22;36499;46.484;13.832;2023-04-24T04:00:26;9.30;99.90
12470;DHT22;36499;46.484;13.832;2023-04-24T04:02:53;9.30;99.90
12470;DHT22;36499;46.484;13.832;2023-04-24T04:05:20;9.40;99.90
12470;DHT22;36499;46.484;13.832;2023-04-24T04:07:47;9.40;99.90
12470;DHT22;36499;46.484;13.832;2023-04-24T04:10:14;9.40;99.90
12470;DHT22;36499;46.484;13.832;2023-04-24T04:12:42;9.40;99.90
12470;DHT22;36499;46.484;13.832;2023-04-24T04:15:11;9.40;99.90
12470;DHT22;36499;46.484;13.832;2023-04-24T04:17:38;9.40;99.90
12470;DHT22;36499;46.484;13.832;2023-04-24T04:20:06;9.40;99.90
12470;DHT22;36499;46.484;13.832;2023-04-24T04:22:35;9.40;99.90
12470;DHT22;36499;46.484;13.832;2023-04-24T04:25:02;9.40;99.90
12470;DHT22;36499;46.484;13.832;2023-04-24T04:27:30;9.40;99.90
12470;DHT22;36499;46.484;13.832;2023-04-24T04:29:57;9.30;99.90
12470;DHT22;36499;46.484;13.832;2023-04-24T04:32:28;9.40;99.90
12470;DHT22;36499;46.484;13.832;2023-04-24T04:34:55;9.40;99.90
12470;DHT22;36499;46.484;13.832;2023-04-24T04:37:22;9.40;99.90
12470;DHT22;36499;46.484;13.832;2023-04-24T04:39:49;9.40;99.90
12470;DHT22;36499;46.484;13.832;2023-04-24T04:42:16;9.30;99.90
12470;DHT22;36499;46.484;13.832;2023-04-24T04:44:44;9.30;99.90
12470;DHT22;36499;46.484;13.832;2023-04-24T04:47:11;9.30;99.90
12470;DHT22;36499;46.484;13.832;2023-04-24T04:49:40;9.30;99.90
12470;DHT22;36499;46.484;13.832;2023-04-24T04:52:08;9.30;99.90
12470;DHT22;36499;46.484;13.832;2023-04-24T04:54:35;9.20;99.90
12470;DHT22;36499;46.484;13.832;2023-04-24T04:57:02;9.30;99.90
12470;DHT22;36499;46.484;13.832;2023-04-24T04:59:29;9.30;99.90
12470;DHT22;36499;46.484;13.832;2023-04-24T05:01:56;9.30;99.90
12470;DHT22;36499;46.484;13.832;2023-04-24T05:04:23;9.30;99.90
12470;DHT22;36499;46.484;13.832;2023-04-24T05:06:52;9.30;99.90
12470;DHT22;36499;46.484;13.832;2023-04-24T05:09:19;9.40;99.90
12470;DHT22;36499;46.484;13.832;2023-04-24T05:11:46;9.40;99.90
12470;DHT22;36499;46.484;13.832;2023-04-24T05:14:13;9.40;99.90
12470;DHT22;36499;46.484;13.832;2023-04-24T05:16:40;9.40;99.90
12470;DHT22;36499;46.484;13.832;2023-04-24T05:19:07;9.50;99.90
12470;DHT22;36499;46.484;13.832;2023-04-24T05:21:34;9.70;99.90
12470;DHT22;36499;46.484;13.832;2023-04-24T05:24:03;9.80;99.90
12470;DHT22;36499;46.484;13.832;2023-04-24T05:26:30;9.80;99.90
12470;DHT22;36499;46.484;13.832;2023-04-24T05:28:57;9.90;99.90
12470;DHT22;36499;46.484;13.832;2023-04-24T05:31:24;10.00;99.90
12470;DHT22;36499;46.484;13.832;2023-04-24T05:33:51;10.10;99.90
12470;DHT22;36499;46.484;13.832;2023-04-24T05:36:18;10.20;99.90
12470;DHT22;36499;46.484;13.832;2023-04-24T05:38:46;10.30;99.90
12470;DHT22;36499;46.484;13.832;2023-04-24T05:41:14;10.30;99.90
12470;DHT22;36499;46.484;13.832;2023-04-24T05:43:41;10.10;99.90
12470;DHT22;36499;46.484;13.832;2023-04-24T05:46:08;10.10;99.90
12470;DHT22;36499;46.484;13.832;2023-04-24T05:48:35;10.00;99.90
12470;DHT22;36499;46.484;13.832;2023-04-24T05:51:02;10.00;99.90
12470;DHT22;36499;46.484;13.832;2023-04-24T05:53:30;9.90;99.90
12470;DHT22;36499;46.484;13.832;2023-04-24T05:55:57;9.80;99.90
12470;DHT22;36499;46.484;13.832;2023-04-24T05:58:25;9.80;99.90
12470;DHT22;36499;46.484;13.832;2023-04-24T06:00:52;9.80;99.90
12470;DHT22;36499;46.484;13.832;2023-04-24T06:03:20;9.80;99.90
12470;DHT22;36499;46.484;13.832;2023-04-24T06:05:49;9.80;99.90
12470;DHT22;36499;46.484;13.832;2023-04-24T06:08:16;9.80;99.90
12470;DHT22;36499;46.484;13.832;2023-04-24T06:10:43;9.90;99.90
12470;DHT22;36499;46.484;13.832;2023-04-24T06:13:10;9.90;99.90
12470;DHT22;36499;46.484;13.832;2023-04-24T06:15:39;10.00;99.90
12470;DHT22;36499;46.484;13.832;2023-04-24T06:18:06;10.00;99.90
12470;DHT22;36499;46.484;13.832;2023-04-24T06:20:35;10.00;99.90
12470;DHT22;36499;46.484;13.832;2023-04-24T06:23:02;10.10;99.90
12470;DHT22;36499;46.484;13.832;2023-04-24T06:25:29;10.10;99.90
12470;DHT22;36499;46.484;13.832;2023-04-24T06:27:57;10.10;99.90
12470;DHT22;36499;46.484;13.832;2023-04-24T06:30:24;10.20;99.90
12470;DHT22;36499;46.484;13.832;2023-04-24T06:32:54;10.20;99.90
12470;DHT22;36499;46.484;13.832;2023-04-24T06:35:21;10.20;99.90
12470;DHT22;36499;46.484;13.832;2023-04-24T06:37:48;10.20;99.90
12470;DHT22;36499;46.484;13.832;2023-04-24T06:40:15;10.20;99.90
12470;DHT22;36499;46.484;13.832;2023-04-24T06:42:44;10.30;99.90
12470;DHT22;36499;46.484;13.832;2023-04-24T06:45:11;10.30;99.90
12470;DHT22;36499;46.484;13.832;2023-04-24T06:47:38;10.30;99.90
12470;DHT22;36499;46.484;13.832;2023-04-24T06:50:07;10.40;99.90
12470;DHT22;36499;46.484;13.832;2023-04-24T06:52:35;10.40;99.90
12470;DHT22;36499;46.484;13.832;2023-04-24T06:55:02;10.40;99.90
12470;DHT22;36499;46.484;13.832;2023-04-24T06:57:30;10.50;99.90
12470;DHT22;36499;46.484;13.832;2023-04-24T06:59:57;10.50;99.90
12470;DHT22;36499;46.484;13.832;2023-04-24T07:02:25;10.60;99.90
12470;DHT22;36499;46.484;13.832;2023-04-24T07:04:52;10.60;99.90
12470;DHT22;36499;46.484;13.832;2023-04-24T07:07:20;10.70;99.90
12470;DHT22;36499;46.484;13.832;2023-04-24T07:09:49;10.70;99.90
12470;DHT22;36499;46.484;13.832;2023-04-24T07:12:16;10.70;99.90
12470;DHT22;36499;46.484;13.832;2023-04-24T07:14:46;10.70;99.90
12470;DHT22;36499;46.484;13.832;2023-04-24T07:17:13;10.70;99.90
12470;DHT22;36499;46.484;13.832;2023-04-24T07:19:40;10.70;99.90
12470;DHT22;36499;46.484;13.832;2023-04-24T07:22:07;10.70;99.90
12470;DHT22;36499;46.484;13.832;2023-04-24T07:24:38;10.70;99.90
12470;DHT22;36499;46.484;13.832;2023-04-24T07:27:05;10.60;99.90
12470;DHT22;36499;46.484;13.832;2023-04-24T07:29:32;10.60;99.90
12470;DHT22;36499;46.484;13.832;2023-04-24T07:31:59;10.60;99.90
12470;DHT22;36499;46.484;13.832;2023-04-24T07:34:26;10.60;99.90
12470;DHT22;36499;46.484;13.832;2023-04-24T07:36:53;10.60;99.90
12470;DHT22;36499;46.484;13.832;2023-04-24T07:39:20;10.70;99.90
12470;DHT22;36499;46.484;13.832;2023-04-24T07:41:49;10.70;99.90
12470;DHT22;36499;46.484;13.832;2023-04-24T07:44:16;10.80;99.90
12470;DHT22;36499;46.484;13.832;2023-04-24T07:46:43;10.90;99.90
12470;DHT22;36499;46.484;13.832;2023-04-24T07:49:10;10.90;99.90
12470;DHT22;36499;46.484;13.832;2023-04-24T07:51:37;11.00;99.90
12470;DHT22;36499;46.484;13.832;2023-04-24T07:54:04;11.00;99.90
12470;DHT22;36499;46.484;13.832;2023-04-24T07:56:32;11.00;99.90
12470;DHT22;36499;46.484;13.832;2023-04-24T07:59:01;11.00;99.90
12470;DHT22;36499;46.484;13.832;2023-04-24T08:01:28;11.10;99.90
12470;DHT22;36499;46.484;13.832;2023-04-24T08:03:55;11.10;99.90
12470;DHT22;36499;46.484;13.832;2023-04-24T08:06:22;11.10;99.90
12470;DHT22;36499;46.484;13.832;2023-04-24T08:08:51;11.10;99.90
12470;DHT22;36499;46.484;13.832;2023-04-24T08:11:18;11.10;99.90
12470;DHT22;36499;46.484;13.832;2023-04-24T08:13:45;11.10;99.90
12470;DHT22;36499;46.484;13.832;2023-04-24T08:16:13;11.10;99.90
12470;DHT22;36499;46.484;13.832;2023-04-24T08:18:41;11.10;99.90
12470;DHT22;36499;46.484;13.832;2023-04-24T08:21:08;11.00;99.90
12470;DHT22;36499;46.484;13.832;2023-04-24T08:23:35;11.00;99.90
12470;DHT22;36499;46.484;13.832;2023-04-24T08:26:02;10.90;99.90
12470;DHT22;36499;46.484;13.832;2023-04-24T08:28:29;10.80;99.90
12470;DHT22;36499;46.484;13.832;2023-04-24T08:30:56;10.80;99.90
12470;DHT22;36499;46.484;13.832;2023-04-24T08:33:24;10.80;99.90
12470;DHT22;36499;46.484;13.832;2023-04-24T08:35:52;10.70;99.90
12470;DHT22;36499;46.484;13.832;2023-04-24T08:38:19;10.70;99.90
12470;DHT22;36499;46.484;13.832;2023-04-24T08:40:47;10.70;99.90
12470;DHT22;36499;46.484;13.832;2023-04-24T08:43:15;10.60;99.90
12470;DHT22;36499;46.484;13.832;2023-04-24T08:45:43;10.50;99.90
12470;DHT22;36499;46.484;13.832;2023-04-24T08:48:11;10.50;99.90
12470;DHT22;36499;46.484;13.832;2023-04-24T08:50:40;10.40;99.90
12470;DHT22;36499;46.484;13.832;2023-04-24T08:53:10;10.40;99.90
12470;DHT22;36499;46.484;13.832;2023-04-24T08:55:38;10.50;99.90
12470;DHT22;36499;46.484;13.832;2023-04-24T08:58:06;10.40;99.90
12470;DHT22;36499;46.484;13.832;2023-04-24T09:00:34;10.20;99.90
12470;DHT22;36499;46.484;13.832;2023-04-24T09:03:03;10.20;99.90
12470;DHT22;36499;46.484;13.832;2023-04-24T09:05:32;9.90;99.90
12470;DHT22;36499;46.484;13.832;2023-04-24T09:08:02;9.80;99.90
12470;DHT22;36499;46.484;13.832;2023-04-24T09:10:32;9.60;99.90
12470;DHT22;36499;46.484;13.832;2023-04-24T09:13:01;9.40;99.90
12470;DHT22;36499;46.484;13.832;2023-04-24T09:15:29;9.30;99.90
12470;DHT22;36499;46.484;13.832;2023-04-24T09:17:56;9.20;99.90
12470;DHT22;36499;46.484;13.832;2023-04-24T09:20:24;9.10;99.90
12470;DHT22;36499;46.484;13.832;2023-04-24T09:22:54;9.10;99.90
12470;DHT22;36499;46.484;13.832;2023-04-24T09:25:24;9.00;99.90
12470;DHT22;36499;46.484;13.832;2023-04-24T09:28:00;9.00;99.90
12470;DHT22;36499;46.484;13.832;2023-04-24T09:30:28;8.90;99.90
12470;DHT22;36499;46.484;13.832;2023-04-24T09:33:10;8.90;99.90
12470;DHT22;36499;46.484;13.832;2023-04-24T09:35:41;8.80;99.90
12470;DHT22;36499;46.484;13.832;2023-04-24T09:38:09;8.80;99.90
12470;DHT22;36499;46.484;13.832;2023-04-24T09:40:38;8.90;99.90
12470;DHT22;36499;46.484;13.832;2023-04-24T09:43:10;9.00;99.90
12470;DHT22;36499;46.484;13.832;2023-04-24T09:45:39;9.00;99.90
12470;DHT22;36499;46.484;13.832;2023-04-24T09:48:09;9.00;99.90
12470;DHT22;36499;46.484;13.832;2023-04-24T09:50:36;9.00;99.90
12470;DHT22;36499;46.484;13.832;2023-04-24T09:53:05;8.90;99.90
12470;DHT22;36499;46.484;13.832;2023-04-24T09:55:42;9.00;99.90
12470;DHT22;36499;46.484;13.832;2023-04-24T09:58:13;9.00;99.90
12470;DHT22;36499;46.484;13.832;2023-04-24T10:00:40;9.10;99.90
12470;DHT22;36499;46.484;13.832;2023-04-24T10:03:07;9.10;99.90
12470;DHT22;36499;46.484;13.832;2023-04-24T10:05:36;9.10;99.90
12470;DHT22;36499;46.484;13.832;2023-04-24T10:08:06;9.10;99.90
12470;DHT22;36499;46.484;13.832;2023-04-24T10:10:35;9.10;99.90
12470;DHT22;36499;46.484;13.832;2023-04-24T10:13:07;9.10;99.90
12470;DHT22;36499;46.484;13.832;2023-04-24T10:15:35;9.10;99.90
12470;DHT22;36499;46.484;13.832;2023-04-24T10:18:04;9.10;99.90
12470;DHT22;36499;46.484;13.832;2023-04-24T10:20:33;9.10;99.90
12470;DHT22;36499;46.484;13.832;2023-04-24T10:23:01;9.10;99.90
12470;DHT22;36499;46.484;13.832;2023-04-24T10:25:30;9.00;99.90
12470;DHT22;36499;46.484;13.832;2023-04-24T10:28:00;8.90;99.90
12470;DHT22;36499;46.484;13.832;2023-04-24T10:30:30;8.90;99.90
12470;DHT22;36499;46.484;13.832;2023-04-24T10:33:00;8.90;99.90
12470;DHT22;36499;46.484;13.832;2023-04-24T10:35:30;8.90;99.90
12470;DHT22;36499;46.484;13.832;2023-04-24T10:38:02;8.90;99.90
12470;DHT22;36499;46.484;13.832;2023-04-24T10:40:34;8.90;99.90
12470;DHT22;36499;46.484;13.832;2023-04-24T10:43:03;8.80;99.90
12470;DHT22;36499;46.484;13.832;2023-04-24T10:45:33;8.80;99.90
12470;DHT22;36499;46.484;13.832;2023-04-24T10:48:02;8.80;99.90
12470;DHT22;36499;46.484;13.832;2023-04-24T10:50:43;8.80;99.90
12470;DHT22;36499;46.484;13.832;2023-04-24T10:53:15;8.80;99.90
12470;DHT22;36499;46.484;13.832;2023-04-24T10:55:46;8.80;99.90
12470;DHT22;36499;46.484;13.832;2023-04-24T10:58:15;8.90;99.90
12470;DHT22;36499;46.484;13.832;2023-04-24T11:00:54;8.90;99.90
12470;DHT22;36499;46.484;13.832;2023-04-24T11:03:24;9.00;99.90
12470;DHT22;36499;46.484;13.832;2023-04-24T11:05:56;9.00;99.90
12470;DHT22;36499;46.484;13.832;2023-04-24T11:08:27;9.00;99.90
12470;DHT22;36499;46.484;13.832;2023-04-24T11:10:58;9.00;99.90
12470;DHT22;36499;46.484;13.832;2023-04-24T11:14:01;9.10;99.90
12470;DHT22;36499;46.484;13.832;2023-04-24T11:16:32;9.10;99.90
12470;DHT22;36499;46.484;13.832;2023-04-24T11:19:03;9.00;99.90
12470;DHT22;36499;46.484;13.832;2023-04-24T11:21:32;9.00;99.90
12470;DHT22;36499;46.484;13.832;2023-04-24T11:24:25;9.00;99.90
12470;DHT22;36499;46.484;13.832;2023-04-24T11:26:54;9.00;99.90
12470;DHT22;36499;46.484;13.832;2023-04-24T11:29:23;9.10;99.90
12470;DHT22;36499;46.484;13.832;2023-04-24T11:32:16;9.10;99.90
12470;DHT22;36499;46.484;13.832;2023-04-24T11:34:48;9.00;99.90
12470;DHT22;36499;46.484;13.832;2023-04-24T11:37:16;9.00;99.90
12470;DHT22;36499;46.484;13.832;2023-04-24T11:39:44;9.00;99.90
12470;DHT22;36499;46.484;13.832;2023-04-24T11:42:14;9.00;99.90
12470;DHT22;36499;46.484;13.832;2023-04-24T11:44:42;9.00;99.90
12470;DHT22;36499;46.484;13.832;2023-04-24T11:47:09;8.90;99.90
12470;DHT22;36499;46.484;13.832;2023-04-24T11:49:38;8.90;99.90
12470;DHT22;36499;46.484;13.832;2023-04-24T11:52:05;9.00;99.90
12470;DHT22;36499;46.484;13.832;2023-04-24T11:54:32;9.10;99.90
12470;DHT22;36499;46.484;13.832;2023-04-24T11:57:04;9.20;99.90
12470;DHT22;36499;46.484;13.832;2023-04-24T11:59:35;9.20;99.90
12470;DHT22;36499;46.484;13.832;2023-04-24T12:02:03;9.20;99.90
12470;DHT22;36499;46.484;13.832;2023-04-24T12:04:40;9.30;99.90
12470;DHT22;36499;46.484;13.832;2023-04-24T12:07:07;9.40;99.90
12470;DHT22;36499;46.484;13.832;2023-04-24T12:09:42;9.40;99.90
12470;DHT22;36499;46.484;13.832;2023-04-24T12:12:11;9.50;99.90
12470;DHT22;36499;46.484;13.832;2023-04-24T12:14:47;9.60;99.90
12470;DHT22;36499;46.484;13.832;2023-04-24T12:17:16;9.70;99.90
12470;DHT22;36499;46.484;13.832;2023-04-24T12:19:48;9.60;99.90
12470;DHT22;36499;46.484;13.832;2023-04-24T12:22:16;9.70;99.90
12470;DHT22;36499;46.484;13.832;2023-04-24T12:24:56;9.80;99.90
12470;DHT22;36499;46.484;13.832;2023-04-24T12:27:25;9.80;99.90
12470;DHT22;36499;46.484;13.832;2023-04-24T12:29:55;9.70;99.90
12470;DHT22;36499;46.484;13.832;2023-04-24T12:32:23;9.80;99.90
12470;DHT22;36499;46.484;13.832;2023-04-24T12:34:53;9.80;99.90
12470;DHT22;36499;46.484;13.832;2023-04-24T12:37:23;9.80;99.90
12470;DHT22;36499;46.484;13.832;2023-04-24T12:40:02;9.80;99.90
12470;DHT22;36499;46.484;13.832;2023-04-24T12:42:32;9.90;99.90
12470;DHT22;36499;46.484;13.832;2023-04-24T12:45:01;9.80;99.90
12470;DHT22;36499;46.484;13.832;2023-04-24T12:47:30;9.80;99.90
12470;DHT22;36499;46.484;13.832;2023-04-24T12:49:59;9.70;99.90
12470;DHT22;36499;46.484;13.832;2023-04-24T12:52:28;9.60;99.90
12470;DHT22;36499;46.484;13.832;2023-04-24T12:54:57;9.60;99.90
12470;DHT22;36499;46.484;13.832;2023-04-24T12:57:26;9.70;99.90
12470;DHT22;36499;46.484;13.832;2023-04-24T12:59:55;9.70;99.90
12470;DHT22;36499;46.484;13.832;2023-04-24T13:02:24;9.70;99.90
12470;DHT22;36499;46.484;13.832;2023-04-24T13:04:53;9.70;99.90
12470;DHT22;36499;46.484;13.832;2023-04-24T13:07:22;9.80;99.90
12470;DHT22;36499;46.484;13.832;2023-04-24T13:09:50;9.80;99.90
12470;DHT22;36499;46.484;13.832;2023-04-24T13:12:18;9.80;99.90
12470;DHT22;36499;46.484;13.832;2023-04-24T13:14:45;9.80;99.90
12470;DHT22;36499;46.484;13.832;2023-04-24T13:17:13;9.80;99.90
12470;DHT22;36499;46.484;13.832;2023-04-24T13:19:42;9.90;99.90
12470;DHT22;36499;46.484;13.832;2023-04-24T13:22:11;9.90;99.90
12470;DHT22;36499;46.484;13.832;2023-04-24T13:24:40;10.00;99.90
12470;DHT22;36499;46.484;13.832;2023-04-24T13:27:08;10.00;99.90
12470;DHT22;36499;46.484;13.832;2023-04-24T13:29:35;10.10;99.90
12470;DHT22;36499;46.484;13.832;2023-04-24T13:32:03;10.00;99.90
12470;DHT22;36499;46.484;13.832;2023-04-24T13:34:31;10.00;99.90
12470;DHT22;36499;46.484;13.832;2023-04-24T13:36:58;10.00;99.90
12470;DHT22;36499;46.484;13.832;2023-04-24T13:39:25;9.90;99.90
12470;DHT22;36499;46.484;13.832;2023-04-24T13:41:54;10.00;99.90
12470;DHT22;36499;46.484;13.832;2023-04-24T13:44:22;9.90;99.90
12470;DHT22;36499;46.484;13.832;2023-04-24T13:46:52;9.80;99.90
12470;DHT22;36499;46.484;13.832;2023-04-24T13:49:22;9.80;99.90
12470;DHT22;36499;46.484;13.832;2023-04-24T13:51:52;9.80;99.90
12470;DHT22;36499;46.484;13.832;2023-04-24T13:54:20;9.70;99.90
12470;DHT22;36499;46.484;13.832;2023-04-24T13:56:48;9.50;99.90
12470;DHT22;36499;46.484;13.832;2023-04-24T13:59:17;9.50;99.90
12470;DHT22;36499;46.484;13.832;2023-04-24T14:01:45;9.50;99.90
12470;DHT22;36499;46.484;13.832;2023-04-24T14:04:13;9.40;99.90
12470;DHT22;36499;46.484;13.832;2023-04-24T14:06:40;9.40;99.90
12470;DHT22;36499;46.484;13.832;2023-04-24T14:09:07;9.40;99.90
12470;DHT22;36499;46.484;13.832;2023-04-24T14:11:34;9.40;99.90
12470;DHT22;36499;46.484;13.832;2023-04-24T14:14:02;9.30;99.90
12470;DHT22;36499;46.484;13.832;2023-04-24T14:16:30;9.30;99.90
12470;DHT22;36499;46.484;13.832;2023-04-24T14:18:57;9.30;99.90
12470;DHT22;36499;46.484;13.832;2023-04-24T14:21:25;9.30;99.90
12470;DHT22;36499;46.484;13.832;2023-04-24T14:23:52;9.30;99.90
12470;DHT22;36499;46.484;13.832;2023-04-24T14:26:19;9.20;99.90
12470;DHT22;36499;46.484;13.832;2023-04-24T14:28:47;9.30;99.90
12470;DHT22;36499;46.484;13.832;2023-04-24T14:31:14;9.20;99.90
12470;DHT22;36499;46.484;13.832;2023-04-24T14:33:42;9.20;99.90
12470;DHT22;36499;46.484;13.832;2023-04-24T14:36:10;9.20;99.90
12470;DHT22;36499;46.484;13.832;2023-04-24T14:38:37;9.20;99.90
12470;DHT22;36499;46.484;13.832;2023-04-24T14:41:04;9.20;99.90
12470;DHT22;36499;46.484;13.832;2023-04-24T14:43:34;9.30;99.90
12470;DHT22;36499;46.484;13.832;2023-04-24T14:46:02;9.30;99.90
12470;DHT22;36499;46.484;13.832;2023-04-24T14:48:29;9.30;99.90
12470;DHT22;36499;46.484;13.832;2023-04-24T14:50:58;9.20;99.90
12470;DHT22;36499;46.484;13.832;2023-04-24T14:53:25;9.10;99.90
12470;DHT22;36499;46.484;13.832;2023-04-24T14:55:52;9.00;99.90
12470;DHT22;36499;46.484;13.832;2023-04-24T14:58:20;8.90;99.90
12470;DHT22;36499;46.484;13.832;2023-04-24T15:00:47;8.90;99.90
12470;DHT22;36499;46.484;13.832;2023-04-24T15:03:18;8.80;99.90
12470;DHT22;36499;46.484;13.832;2023-04-24T15:05:46;8.70;99.90
12470;DHT22;36499;46.484;13.832;2023-04-24T15:08:14;8.50;99.90
12470;DHT22;36499;46.484;13.832;2023-04-24T15:10:41;8.40;99.90
12470;DHT22;36499;46.484;13.832;2023-04-24T15:13:08;8.30;99.90
12470;DHT22;36499;46.484;13.832;2023-04-24T15:15:36;8.20;99.90
12470;DHT22;36499;46.484;13.832;2023-04-24T15:18:04;8.20;99.90
12470;DHT22;36499;46.484;13.832;2023-04-24T15:20:33;8.10;99.90
12470;DHT22;36499;46.484;13.832;2023-04-24T15:23:01;8.10;99.90
12470;DHT22;36499;46.484;13.832;2023-04-24T15:25:29;8.20;99.90
12470;DHT22;36499;46.484;13.832;2023-04-24T15:27:57;8.20;99.90
12470;DHT22;36499;46.484;13.832;2023-04-24T15:30:25;8.10;99.90
12470;DHT22;36499;46.484;13.832;2023-04-24T15:32:52;8.10;99.90
12470;DHT22;36499;46.484;13.832;2023-04-24T15:35:20;8.10;99.90